sensor_id;sensor_type;location;lat;lon;timestamp;P1;durP1;ratioP1;P2;durP2;ratioP2
616;SDS011;295;51.628;7.520;2022-10-23T00:01:52;11.67;;;8.87;;
616;SDS011;295;51.628;7.520;2022-10-23T00:04:41;8.77;;;7.87;;
616;SDS011;295;51.628;7.520;2022-10-23T00:07:30;9.03;;;8.00;;
616;SDS011;295;51.628;7.520;2022-10-23T00:10:19;8.23;;;7.43;;
616;SDS011;295;51.628;7.520;2022-10-23T00:13:09;9.17;;;8.10;;
616;SDS011;295;51.628;7.520;2022-10-23T00:15:59;9.80;;;8.07;;
616;SDS011;295;51.628;7.520;2022-10-23T00:18:48;8.20;;;7.30;;
616;SDS011;295;51.628;7.520;2022-10-23T00:21:36;8.13;;;7.33;;
616;SDS011;295;51.628;7.520;2022-10-23T00:24:25;11.40;;;8.10;;
616;SDS011;295;51.628;7.520;2022-10-23T00:27:14;9.70;;;7.40;;
616;SDS011;295;51.628;7.520;2022-10-23T00:30:04;9.47;;;8.43;;
616;SDS011;295;51.628;7.520;2022-10-23T00:32:54;9.47;;;8.13;;
616;SDS011;295;51.628;7.520;2022-10-23T00:35:43;9.27;;;8.03;;
616;SDS011;295;51.628;7.520;2022-10-23T00:38:32;9.20;;;7.93;;
616;SDS011;295;51.628;7.520;2022-10-23T00:41:22;8.80;;;7.73;;
616;SDS011;295;51.628;7.520;2022-10-23T00:47:15;10.60;;;8.50;;
616;SDS011;295;51.628;7.520;2022-10-23T00:50:06;9.90;;;8.80;;
616;SDS011;295;51.628;7.520;2022-10-23T00:52:55;10.07;;;9.00;;
616;SDS011;295;51.628;7.520;2022-10-23T00:55:45;12.40;;;9.50;;
616;SDS011;295;51.628;7.520;2022-10-23T00:58:34;11.67;;;9.80;;
616;SDS011;295;51.628;7.520;2022-10-23T01:01:24;10.73;;;9.27;;
616;SDS011;295;51.628;7.520;2022-10-23T01:04:13;13.50;;;11.17;;
616;SDS011;295;51.628;7.520;2022-10-23T01:07:04;16.47;;;11.20;;
616;SDS011;295;51.628;7.520;2022-10-23T01:09:57;13.30;;;11.67;;
616;SDS011;295;51.628;7.520;2022-10-23T01:12:49;13.37;;;10.80;;
616;SDS011;295;51.628;7.520;2022-10-23T01:15:42;13.40;;;11.97;;
616;SDS011;295;51.628;7.520;2022-10-23T01:18:35;15.23;;;11.83;;
616;SDS011;295;51.628;7.520;2022-10-23T01:21:27;14.10;;;12.60;;
616;SDS011;295;51.628;7.520;2022-10-23T01:24:21;17.10;;;13.70;;
616;SDS011;295;51.628;7.520;2022-10-23T01:27:15;15.43;;;13.80;;
616;SDS011;295;51.628;7.520;2022-10-23T01:30:05;17.37;;;12.53;;
616;SDS011;295;51.628;7.520;2022-10-23T01:32:55;18.73;;;12.37;;
616;SDS011;295;51.628;7.520;2022-10-23T01:35:46;12.67;;;11.37;;
616;SDS011;295;51.628;7.520;2022-10-23T01:38:37;12.20;;;10.80;;
616;SDS011;295;51.628;7.520;2022-10-23T01:41:29;10.90;;;9.60;;
616;SDS011;295;51.628;7.520;2022-10-23T01:44:21;10.40;;;8.47;;
616;SDS011;295;51.628;7.520;2022-10-23T01:47:12;8.90;;;7.70;;
616;SDS011;295;51.628;7.520;2022-10-23T01:50:02;9.43;;;8.03;;
616;SDS011;295;51.628;7.520;2022-10-23T01:52:51;9.63;;;7.30;;
616;SDS011;295;51.628;7.520;2022-10-23T01:55:40;16.73;;;7.77;;
616;SDS011;295;51.628;7.520;2022-10-23T01:58:29;9.50;;;7.70;;
616;SDS011;295;51.628;7.520;2022-10-23T02:01:21;8.30;;;7.40;;
616;SDS011;295;51.628;7.520;2022-10-23T02:04:13;9.03;;;7.73;;
616;SDS011;295;51.628;7.520;2022-10-23T02:07:03;8.47;;;7.57;;
616;SDS011;295;51.628;7.520;2022-10-23T02:09:52;7.00;;;6.00;;
616;SDS011;295;51.628;7.520;2022-10-23T02:12:45;8.37;;;6.93;;
616;SDS011;295;51.628;7.520;2022-10-23T02:15:36;8.63;;;6.80;;
616;SDS011;295;51.628;7.520;2022-10-23T02:18:29;7.30;;;6.70;;
616;SDS011;295;51.628;7.520;2022-10-23T02:21:25;6.93;;;6.33;;
616;SDS011;295;51.628;7.520;2022-10-23T02:24:16;9.33;;;7.20;;
616;SDS011;295;51.628;7.520;2022-10-23T02:27:06;7.73;;;6.57;;
616;SDS011;295;51.628;7.520;2022-10-23T02:29:59;7.67;;;6.43;;
616;SDS011;295;51.628;7.520;2022-10-23T02:32:50;9.43;;;7.60;;
616;SDS011;295;51.628;7.520;2022-10-23T02:35:41;8.23;;;7.40;;
616;SDS011;295;51.628;7.520;2022-10-23T02:38:32;7.10;;;5.87;;
616;SDS011;295;51.628;7.520;2022-10-23T02:41:25;8.53;;;7.67;;
616;SDS011;295;51.628;7.520;2022-10-23T02:44:26;9.00;;;7.27;;
616;SDS011;295;51.628;7.520;2022-10-23T02:47:19;8.53;;;6.70;;
616;SDS011;295;51.628;7.520;2022-10-23T02:50:11;8.87;;;6.87;;
616;SDS011;295;51.628;7.520;2022-10-23T02:53:09;8.90;;;7.93;;
616;SDS011;295;51.628;7.520;2022-10-23T02:56:00;8.30;;;7.50;;
616;SDS011;295;51.628;7.520;2022-10-23T02:58:53;8.70;;;7.40;;
616;SDS011;295;51.628;7.520;2022-10-23T03:01:47;9.47;;;7.60;;
616;SDS011;295;51.628;7.520;2022-10-23T03:04:37;8.10;;;7.00;;
616;SDS011;295;51.628;7.520;2022-10-23T03:07:27;9.30;;;7.70;;
616;SDS011;295;51.628;7.520;2022-10-23T03:10:18;8.57;;;6.90;;
616;SDS011;295;51.628;7.520;2022-10-23T03:13:08;9.30;;;6.80;;
616;SDS011;295;51.628;7.520;2022-10-23T03:15:57;7.00;;;6.13;;
616;SDS011;295;51.628;7.520;2022-10-23T03:18:46;7.03;;;6.33;;
616;SDS011;295;51.628;7.520;2022-10-23T03:21:35;7.33;;;6.47;;
616;SDS011;295;51.628;7.520;2022-10-23T03:24:24;7.67;;;6.63;;
616;SDS011;295;51.628;7.520;2022-10-23T03:27:14;7.67;;;6.93;;
616;SDS011;295;51.628;7.520;2022-10-23T03:30:03;7.90;;;6.93;;
616;SDS011;295;51.628;7.520;2022-10-23T03:32:52;8.07;;;6.60;;
616;SDS011;295;51.628;7.520;2022-10-23T03:35:41;7.87;;;6.70;;
616;SDS011;295;51.628;7.520;2022-10-23T03:38:30;10.67;;;7.20;;
616;SDS011;295;51.628;7.520;2022-10-23T03:41:19;10.30;;;7.20;;
616;SDS011;295;51.628;7.520;2022-10-23T03:44:09;9.83;;;7.07;;
616;SDS011;295;51.628;7.520;2022-10-23T03:46:58;9.20;;;6.80;;
616;SDS011;295;51.628;7.520;2022-10-23T03:49:47;9.30;;;6.77;;
616;SDS011;295;51.628;7.520;2022-10-23T03:52:36;8.87;;;7.10;;
616;SDS011;295;51.628;7.520;2022-10-23T03:55:25;8.67;;;7.07;;
616;SDS011;295;51.628;7.520;2022-10-23T03:58:14;8.97;;;7.23;;
616;SDS011;295;51.628;7.520;2022-10-23T04:01:04;11.20;;;7.50;;
616;SDS011;295;51.628;7.520;2022-10-23T04:03:53;8.30;;;7.33;;
616;SDS011;295;51.628;7.520;2022-10-23T04:06:42;8.60;;;6.97;;
616;SDS011;295;51.628;7.520;2022-10-23T04:09:31;8.50;;;6.50;;
616;SDS011;295;51.628;7.520;2022-10-23T04:12:20;8.67;;;7.13;;
616;SDS011;295;51.628;7.520;2022-10-23T04:15:09;8.50;;;7.27;;
616;SDS011;295;51.628;7.520;2022-10-23T04:17:59;8.10;;;6.30;;
616;SDS011;295;51.628;7.520;2022-10-23T04:20:48;7.77;;;6.97;;
616;SDS011;295;51.628;7.520;2022-10-23T04:23:37;9.80;;;7.20;;
616;SDS011;295;51.628;7.520;2022-10-23T04:26:26;10.93;;;8.03;;
616;SDS011;295;51.628;7.520;2022-10-23T04:29:15;9.50;;;7.73;;
616;SDS011;295;51.628;7.520;2022-10-23T04:32:05;8.27;;;7.23;;
616;SDS011;295;51.628;7.520;2022-10-23T04:34:55;10.97;;;6.83;;
616;SDS011;295;51.628;7.520;2022-10-23T04:37:44;10.83;;;7.80;;
616;SDS011;295;51.628;7.520;2022-10-23T04:40:33;9.87;;;7.60;;
616;SDS011;295;51.628;7.520;2022-10-23T04:43:22;8.23;;;7.40;;
616;SDS011;295;51.628;7.520;2022-10-23T04:46:11;11.40;;;7.93;;
616;SDS011;295;51.628;7.520;2022-10-23T04:48:59;7.80;;;7.00;;
616;SDS011;295;51.628;7.520;2022-10-23T04:51:50;8.50;;;7.07;;
616;SDS011;295;51.628;7.520;2022-10-23T04:54:39;7.43;;;6.67;;
616;SDS011;295;51.628;7.520;2022-10-23T04:57:27;7.77;;;7.07;;
616;SDS011;295;51.628;7.520;2022-10-23T05:00:17;7.70;;;6.90;;
616;SDS011;295;51.628;7.520;2022-10-23T05:03:06;10.03;;;8.17;;
616;SDS011;295;51.628;7.520;2022-10-23T05:05:55;13.30;;;7.83;;
616;SDS011;295;51.628;7.520;2022-10-23T05:08:45;10.30;;;7.80;;
616;SDS011;295;51.628;7.520;2022-10-23T05:11:34;9.83;;;7.93;;
616;SDS011;295;51.628;7.520;2022-10-23T05:14:23;12.73;;;8.20;;
616;SDS011;295;51.628;7.520;2022-10-23T05:17:13;9.13;;;7.53;;
616;SDS011;295;51.628;7.520;2022-10-23T05:20:04;8.27;;;7.47;;
616;SDS011;295;51.628;7.520;2022-10-23T05:22:55;8.40;;;7.37;;
616;SDS011;295;51.628;7.520;2022-10-23T05:25:45;9.57;;;8.10;;
616;SDS011;295;51.628;7.520;2022-10-23T05:28:34;12.50;;;8.30;;
616;SDS011;295;51.628;7.520;2022-10-23T05:31:23;9.70;;;7.50;;
616;SDS011;295;51.628;7.520;2022-10-23T05:34:13;8.83;;;7.63;;
616;SDS011;295;51.628;7.520;2022-10-23T05:37:02;12.00;;;6.80;;
616;SDS011;295;51.628;7.520;2022-10-23T05:39:53;9.70;;;7.30;;
616;SDS011;295;51.628;7.520;2022-10-23T05:42:43;8.20;;;7.40;;
616;SDS011;295;51.628;7.520;2022-10-23T05:45:33;12.17;;;7.53;;
616;SDS011;295;51.628;7.520;2022-10-23T05:48:22;9.17;;;7.60;;
616;SDS011;295;51.628;7.520;2022-10-23T05:51:21;9.30;;;8.27;;
616;SDS011;295;51.628;7.520;2022-10-23T05:54:10;12.63;;;8.80;;
616;SDS011;295;51.628;7.520;2022-10-23T05:56:59;9.20;;;8.37;;
616;SDS011;295;51.628;7.520;2022-10-23T05:59:49;9.03;;;8.07;;
616;SDS011;295;51.628;7.520;2022-10-23T06:02:38;9.90;;;8.30;;
616;SDS011;295;51.628;7.520;2022-10-23T06:05:27;10.93;;;9.40;;
616;SDS011;295;51.628;7.520;2022-10-23T06:08:16;10.87;;;9.77;;
616;SDS011;295;51.628;7.520;2022-10-23T06:11:06;9.20;;;7.70;;
616;SDS011;295;51.628;7.520;2022-10-23T06:13:55;11.60;;;8.93;;
616;SDS011;295;51.628;7.520;2022-10-23T06:16:45;10.10;;;9.07;;
616;SDS011;295;51.628;7.520;2022-10-23T06:19:34;10.60;;;9.13;;
616;SDS011;295;51.628;7.520;2022-10-23T06:22:23;11.53;;;9.50;;
616;SDS011;295;51.628;7.520;2022-10-23T06:25:12;9.70;;;8.53;;
616;SDS011;295;51.628;7.520;2022-10-23T06:28:01;11.23;;;8.73;;
616;SDS011;295;51.628;7.520;2022-10-23T06:30:49;9.37;;;7.97;;
616;SDS011;295;51.628;7.520;2022-10-23T06:33:40;9.00;;;7.87;;
616;SDS011;295;51.628;7.520;2022-10-23T06:36:29;10.10;;;8.63;;
616;SDS011;295;51.628;7.520;2022-10-23T06:39:17;9.27;;;8.40;;
616;SDS011;295;51.628;7.520;2022-10-23T06:42:07;9.33;;;7.50;;
616;SDS011;295;51.628;7.520;2022-10-23T06:44:56;11.60;;;8.80;;
616;SDS011;295;51.628;7.520;2022-10-23T06:47:53;9.43;;;7.07;;
616;SDS011;295;51.628;7.520;2022-10-23T06:50:43;13.63;;;6.87;;
616;SDS011;295;51.628;7.520;2022-10-23T06:53:32;8.50;;;6.93;;
616;SDS011;295;51.628;7.520;2022-10-23T06:56:21;9.40;;;7.63;;
616;SDS011;295;51.628;7.520;2022-10-23T06:59:14;7.33;;;6.27;;
616;SDS011;295;51.628;7.520;2022-10-23T07:02:03;8.60;;;7.70;;
616;SDS011;295;51.628;7.520;2022-10-23T07:04:52;8.70;;;7.73;;
616;SDS011;295;51.628;7.520;2022-10-23T07:07:42;12.87;;;8.63;;
616;SDS011;295;51.628;7.520;2022-10-23T07:10:31;7.27;;;6.57;;
616;SDS011;295;51.628;7.520;2022-10-23T07:13:20;6.20;;;5.60;;
616;SDS011;295;51.628;7.520;2022-10-23T07:16:11;8.17;;;6.20;;
616;SDS011;295;51.628;7.520;2022-10-23T07:19:00;9.03;;;6.47;;
616;SDS011;295;51.628;7.520;2022-10-23T07:21:49;7.07;;;6.30;;
616;SDS011;295;51.628;7.520;2022-10-23T07:24:40;11.10;;;6.80;;
616;SDS011;295;51.628;7.520;2022-10-23T07:27:28;7.23;;;6.37;;
616;SDS011;295;51.628;7.520;2022-10-23T07:30:17;7.00;;;6.03;;
616;SDS011;295;51.628;7.520;2022-10-23T07:33:06;7.17;;;5.97;;
616;SDS011;295;51.628;7.520;2022-10-23T07:35:58;6.70;;;6.10;;
616;SDS011;295;51.628;7.520;2022-10-23T07:38:47;7.70;;;6.67;;
616;SDS011;295;51.628;7.520;2022-10-23T07:41:37;6.50;;;5.70;;
616;SDS011;295;51.628;7.520;2022-10-23T07:44:26;7.47;;;5.17;;
616;SDS011;295;51.628;7.520;2022-10-23T07:47:15;8.67;;;6.37;;
616;SDS011;295;51.628;7.520;2022-10-23T07:50:04;6.33;;;5.63;;
616;SDS011;295;51.628;7.520;2022-10-23T07:52:53;7.00;;;6.30;;
616;SDS011;295;51.628;7.520;2022-10-23T07:55:42;5.83;;;5.27;;
616;SDS011;295;51.628;7.520;2022-10-23T07:58:33;5.50;;;4.87;;
616;SDS011;295;51.628;7.520;2022-10-23T08:01:22;6.80;;;5.50;;
616;SDS011;295;51.628;7.520;2022-10-23T08:04:13;8.10;;;5.43;;
616;SDS011;295;51.628;7.520;2022-10-23T08:07:02;7.07;;;5.57;;
616;SDS011;295;51.628;7.520;2022-10-23T08:09:51;7.83;;;7.03;;
616;SDS011;295;51.628;7.520;2022-10-23T08:12:40;8.90;;;5.73;;
616;SDS011;295;51.628;7.520;2022-10-23T08:15:30;6.10;;;4.90;;
616;SDS011;295;51.628;7.520;2022-10-23T08:18:19;6.30;;;4.90;;
616;SDS011;295;51.628;7.520;2022-10-23T08:21:08;4.73;;;4.13;;
616;SDS011;295;51.628;7.520;2022-10-23T08:23:58;4.03;;;3.53;;
616;SDS011;295;51.628;7.520;2022-10-23T08:26:47;4.87;;;3.43;;
616;SDS011;295;51.628;7.520;2022-10-23T08:29:36;3.37;;;3.07;;
616;SDS011;295;51.628;7.520;2022-10-23T08:32:28;3.70;;;3.13;;
616;SDS011;295;51.628;7.520;2022-10-23T08:35:18;3.87;;;2.93;;
616;SDS011;295;51.628;7.520;2022-10-23T08:38:07;4.07;;;2.50;;
616;SDS011;295;51.628;7.520;2022-10-23T08:40:56;3.67;;;2.70;;
616;SDS011;295;51.628;7.520;2022-10-23T08:43:47;3.10;;;2.40;;
616;SDS011;295;51.628;7.520;2022-10-23T08:46:40;3.33;;;2.63;;
616;SDS011;295;51.628;7.520;2022-10-23T08:49:34;4.20;;;3.30;;
616;SDS011;295;51.628;7.520;2022-10-23T08:52:25;3.77;;;2.23;;
616;SDS011;295;51.628;7.520;2022-10-23T08:55:17;6.63;;;2.57;;
616;SDS011;295;51.628;7.520;2022-10-23T08:58:11;2.80;;;2.20;;
616;SDS011;295;51.628;7.520;2022-10-23T09:01:09;2.10;;;1.90;;
616;SDS011;295;51.628;7.520;2022-10-23T09:04:04;6.13;;;2.33;;
616;SDS011;295;51.628;7.520;2022-10-23T09:06:56;3.70;;;2.03;;
616;SDS011;295;51.628;7.520;2022-10-23T09:09:51;4.73;;;2.43;;
616;SDS011;295;51.628;7.520;2022-10-23T09:12:42;2.50;;;2.30;;
616;SDS011;295;51.628;7.520;2022-10-23T09:15:33;3.40;;;3.10;;
616;SDS011;295;51.628;7.520;2022-10-23T09:18:22;4.03;;;2.40;;
616;SDS011;295;51.628;7.520;2022-10-23T09:21:11;4.37;;;2.43;;
616;SDS011;295;51.628;7.520;2022-10-23T09:24:02;2.47;;;1.90;;
616;SDS011;295;51.628;7.520;2022-10-23T09:26:52;10.33;;;2.90;;
616;SDS011;295;51.628;7.520;2022-10-23T09:29:45;4.00;;;2.20;;
616;SDS011;295;51.628;7.520;2022-10-23T09:32:35;5.63;;;2.80;;
616;SDS011;295;51.628;7.520;2022-10-23T09:35:25;2.60;;;2.10;;
616;SDS011;295;51.628;7.520;2022-10-23T09:38:20;2.53;;;2.33;;
616;SDS011;295;51.628;7.520;2022-10-23T09:41:15;2.73;;;2.03;;
616;SDS011;295;51.628;7.520;2022-10-23T09:44:10;2.60;;;2.27;;
616;SDS011;295;51.628;7.520;2022-10-23T09:47:07;3.67;;;2.30;;
616;SDS011;295;51.628;7.520;2022-10-23T09:49:57;5.13;;;2.53;;
616;SDS011;295;51.628;7.520;2022-10-23T09:52:47;2.57;;;2.13;;
616;SDS011;295;51.628;7.520;2022-10-23T09:55:37;7.10;;;2.50;;
616;SDS011;295;51.628;7.520;2022-10-23T09:58:33;2.23;;;2.03;;
616;SDS011;295;51.628;7.520;2022-10-23T10:01:23;3.03;;;2.47;;
616;SDS011;295;51.628;7.520;2022-10-23T10:04:12;3.50;;;2.20;;
616;SDS011;295;51.628;7.520;2022-10-23T10:07:02;3.23;;;2.57;;
616;SDS011;295;51.628;7.520;2022-10-23T10:09:59;7.67;;;2.77;;
616;SDS011;295;51.628;7.520;2022-10-23T10:12:48;3.53;;;2.90;;
616;SDS011;295;51.628;7.520;2022-10-23T10:15:40;3.70;;;2.47;;
616;SDS011;295;51.628;7.520;2022-10-23T10:18:33;3.80;;;1.90;;
616;SDS011;295;51.628;7.520;2022-10-23T10:21:26;3.53;;;2.57;;
616;SDS011;295;51.628;7.520;2022-10-23T10:24:16;3.67;;;2.13;;
616;SDS011;295;51.628;7.520;2022-10-23T10:27:12;3.73;;;2.80;;
616;SDS011;295;51.628;7.520;2022-10-23T10:30:07;2.00;;;1.80;;
616;SDS011;295;51.628;7.520;2022-10-23T10:32:59;4.80;;;3.67;;
616;SDS011;295;51.628;7.520;2022-10-23T10:35:50;2.57;;;2.17;;
616;SDS011;295;51.628;7.520;2022-10-23T10:38:44;4.33;;;2.40;;
616;SDS011;295;51.628;7.520;2022-10-23T10:41:37;2.53;;;1.93;;
616;SDS011;295;51.628;7.520;2022-10-23T10:44:39;2.30;;;2.03;;
616;SDS011;295;51.628;7.520;2022-10-23T10:47:31;3.70;;;1.97;;
616;SDS011;295;51.628;7.520;2022-10-23T10:50:21;3.57;;;2.50;;
616;SDS011;295;51.628;7.520;2022-10-23T10:53:16;2.67;;;2.10;;
616;SDS011;295;51.628;7.520;2022-10-23T10:56:06;4.90;;;1.93;;
616;SDS011;295;51.628;7.520;2022-10-23T10:59:01;2.70;;;1.90;;
616;SDS011;295;51.628;7.520;2022-10-23T11:01:54;2.57;;;1.80;;
616;SDS011;295;51.628;7.520;2022-10-23T11:04:45;2.23;;;1.57;;
616;SDS011;295;51.628;7.520;2022-10-23T11:07:36;5.93;;;1.83;;
616;SDS011;295;51.628;7.520;2022-10-23T11:10:27;3.67;;;1.80;;
616;SDS011;295;51.628;7.520;2022-10-23T11:13:21;3.83;;;2.00;;
616;SDS011;295;51.628;7.520;2022-10-23T11:16:12;4.83;;;2.23;;
616;SDS011;295;51.628;7.520;2022-10-23T11:19:05;2.20;;;1.60;;
616;SDS011;295;51.628;7.520;2022-10-23T11:22:01;2.70;;;1.43;;
616;SDS011;295;51.628;7.520;2022-10-23T11:28:10;1.77;;;1.50;;
616;SDS011;295;51.628;7.520;2022-10-23T11:31:13;2.37;;;1.80;;
616;SDS011;295;51.628;7.520;2022-10-23T11:34:16;2.10;;;1.63;;
616;SDS011;295;51.628;7.520;2022-10-23T11:37:14;1.97;;;1.53;;
616;SDS011;295;51.628;7.520;2022-10-23T11:40:11;9.43;;;1.80;;
616;SDS011;295;51.628;7.520;2022-10-23T11:43:02;3.27;;;1.70;;
616;SDS011;295;51.628;7.520;2022-10-23T11:45:51;3.10;;;1.20;;
616;SDS011;295;51.628;7.520;2022-10-23T11:48:40;1.33;;;1.20;;
616;SDS011;295;51.628;7.520;2022-10-23T11:51:32;1.87;;;1.70;;
616;SDS011;295;51.628;7.520;2022-10-23T11:54:22;4.07;;;1.70;;
616;SDS011;295;51.628;7.520;2022-10-23T11:57:13;2.20;;;1.63;;
616;SDS011;295;51.628;7.520;2022-10-23T12:00:17;2.43;;;1.53;;
616;SDS011;295;51.628;7.520;2022-10-23T12:03:13;2.33;;;1.87;;
616;SDS011;295;51.628;7.520;2022-10-23T12:06:05;1.80;;;1.50;;
616;SDS011;295;51.628;7.520;2022-10-23T12:08:57;4.37;;;1.80;;
616;SDS011;295;51.628;7.520;2022-10-23T12:11:47;1.60;;;1.30;;
616;SDS011;295;51.628;7.520;2022-10-23T12:14:37;2.80;;;1.70;;
616;SDS011;295;51.628;7.520;2022-10-23T12:17:32;2.17;;;1.60;;
616;SDS011;295;51.628;7.520;2022-10-23T12:20:26;2.20;;;1.83;;
616;SDS011;295;51.628;7.520;2022-10-23T12:23:22;3.07;;;1.83;;
616;SDS011;295;51.628;7.520;2022-10-23T12:26:19;3.27;;;1.33;;
616;SDS011;295;51.628;7.520;2022-10-23T12:29:10;3.00;;;1.40;;
616;SDS011;295;51.628;7.520;2022-10-23T12:32:05;4.27;;;1.30;;
616;SDS011;295;51.628;7.520;2022-10-23T12:35:16;1.30;;;1.10;;
616;SDS011;295;51.628;7.520;2022-10-23T12:38:09;1.90;;;1.33;;
616;SDS011;295;51.628;7.520;2022-10-23T12:41:02;1.93;;;1.00;;
616;SDS011;295;51.628;7.520;2022-10-23T12:43:54;1.50;;;1.27;;
616;SDS011;295;51.628;7.520;2022-10-23T12:46:45;1.17;;;1.07;;
616;SDS011;295;51.628;7.520;2022-10-23T12:49:34;3.13;;;1.27;;
616;SDS011;295;51.628;7.520;2022-10-23T12:52:23;2.13;;;1.17;;
616;SDS011;295;51.628;7.520;2022-10-23T12:55:12;3.42;;;1.30;;
616;SDS011;295;51.628;7.520;2022-10-23T12:58:02;2.13;;;1.13;;
616;SDS011;295;51.628;7.520;2022-10-23T13:00:53;1.90;;;1.05;;
616;SDS011;295;51.628;7.520;2022-10-23T13:03:42;1.20;;;1.00;;
616;SDS011;295;51.628;7.520;2022-10-23T13:06:31;2.17;;;1.20;;
616;SDS011;295;51.628;7.520;2022-10-23T13:09:22;2.42;;;1.55;;
616;SDS011;295;51.628;7.520;2022-10-23T13:12:15;4.70;;;1.60;;
616;SDS011;295;51.628;7.520;2022-10-23T13:15:16;2.92;;;1.65;;
616;SDS011;295;51.628;7.520;2022-10-23T13:18:07;2.83;;;1.17;;
616;SDS011;295;51.628;7.520;2022-10-23T13:20:57;2.03;;;1.80;;
616;SDS011;295;51.628;7.520;2022-10-23T13:23:49;1.90;;;1.70;;
616;SDS011;295;51.628;7.520;2022-10-23T13:26:39;3.70;;;1.85;;
616;SDS011;295;51.628;7.520;2022-10-23T13:29:32;4.33;;;1.77;;
616;SDS011;295;51.628;7.520;2022-10-23T13:32:21;4.63;;;2.20;;
616;SDS011;295;51.628;7.520;2022-10-23T13:35:19;4.73;;;3.10;;
616;SDS011;295;51.628;7.520;2022-10-23T13:38:08;3.53;;;1.80;;
616;SDS011;295;51.628;7.520;2022-10-23T13:40:58;3.70;;;2.67;;
616;SDS011;295;51.628;7.520;2022-10-23T13:43:47;4.83;;;2.30;;
616;SDS011;295;51.628;7.520;2022-10-23T13:46:36;2.60;;;1.50;;
616;SDS011;295;51.628;7.520;2022-10-23T13:49:25;3.50;;;2.17;;
616;SDS011;295;51.628;7.520;2022-10-23T13:52:16;3.13;;;1.90;;
616;SDS011;295;51.628;7.520;2022-10-23T13:55:09;2.47;;;1.70;;
616;SDS011;295;51.628;7.520;2022-10-23T13:58:00;3.60;;;1.80;;
616;SDS011;295;51.628;7.520;2022-10-23T14:00:50;4.10;;;3.20;;
616;SDS011;295;51.628;7.520;2022-10-23T14:03:40;3.17;;;2.00;;
616;SDS011;295;51.628;7.520;2022-10-23T14:06:29;4.23;;;1.80;;
616;SDS011;295;51.628;7.520;2022-10-23T14:09:20;4.70;;;1.57;;
616;SDS011;295;51.628;7.520;2022-10-23T14:12:09;7.60;;;2.20;;
616;SDS011;295;51.628;7.520;2022-10-23T14:14:59;9.97;;;3.50;;
616;SDS011;295;51.628;7.520;2022-10-23T14:17:54;2.13;;;1.57;;
616;SDS011;295;51.628;7.520;2022-10-23T14:20:46;3.47;;;2.17;;
616;SDS011;295;51.628;7.520;2022-10-23T14:23:36;4.70;;;2.30;;
616;SDS011;295;51.628;7.520;2022-10-23T14:26:26;2.40;;;1.50;;
616;SDS011;295;51.628;7.520;2022-10-23T14:29:16;2.17;;;1.53;;
616;SDS011;295;51.628;7.520;2022-10-23T14:32:10;5.27;;;2.60;;
616;SDS011;295;51.628;7.520;2022-10-23T14:34:58;2.40;;;1.90;;
616;SDS011;295;51.628;7.520;2022-10-23T14:37:49;3.30;;;2.20;;
616;SDS011;295;51.628;7.520;2022-10-23T14:40:38;3.60;;;2.83;;
616;SDS011;295;51.628;7.520;2022-10-23T14:43:29;5.83;;;4.60;;
616;SDS011;295;51.628;7.520;2022-10-23T14:46:18;2.80;;;2.00;;
616;SDS011;295;51.628;7.520;2022-10-23T14:49:07;6.00;;;2.63;;
616;SDS011;295;51.628;7.520;2022-10-23T14:51:56;4.33;;;1.83;;
616;SDS011;295;51.628;7.520;2022-10-23T14:54:45;4.30;;;3.70;;
616;SDS011;295;51.628;7.520;2022-10-23T14:57:34;7.57;;;3.23;;
616;SDS011;295;51.628;7.520;2022-10-23T15:00:24;10.53;;;9.53;;
616;SDS011;295;51.628;7.520;2022-10-23T15:03:13;11.87;;;10.13;;
616;SDS011;295;51.628;7.520;2022-10-23T15:06:02;3.27;;;2.40;;
616;SDS011;295;51.628;7.520;2022-10-23T15:08:52;6.40;;;4.17;;
616;SDS011;295;51.628;7.520;2022-10-23T15:11:41;5.13;;;2.47;;
616;SDS011;295;51.628;7.520;2022-10-23T15:14:30;7.97;;;5.87;;
616;SDS011;295;51.628;7.520;2022-10-23T15:17:20;4.83;;;3.87;;
616;SDS011;295;51.628;7.520;2022-10-23T15:20:09;7.93;;;6.80;;
616;SDS011;295;51.628;7.520;2022-10-23T15:22:58;36.37;;;3.73;;
616;SDS011;295;51.628;7.520;2022-10-23T15:25:53;11.47;;;5.60;;
616;SDS011;295;51.628;7.520;2022-10-23T15:28:42;3.50;;;3.03;;
616;SDS011;295;51.628;7.520;2022-10-23T15:31:45;5.90;;;4.40;;
616;SDS011;295;51.628;7.520;2022-10-23T15:34:35;11.83;;;5.00;;
616;SDS011;295;51.628;7.520;2022-10-23T15:37:25;5.63;;;3.40;;
616;SDS011;295;51.628;7.520;2022-10-23T15:40:14;4.73;;;4.20;;
616;SDS011;295;51.628;7.520;2022-10-23T15:43:03;3.50;;;2.23;;
616;SDS011;295;51.628;7.520;2022-10-23T15:45:52;5.30;;;2.20;;
616;SDS011;295;51.628;7.520;2022-10-23T15:48:40;3.53;;;3.03;;
616;SDS011;295;51.628;7.520;2022-10-23T15:51:31;4.33;;;2.87;;
616;SDS011;295;51.628;7.520;2022-10-23T15:54:20;9.70;;;7.90;;
616;SDS011;295;51.628;7.520;2022-10-23T15:57:08;3.23;;;2.13;;
616;SDS011;295;51.628;7.520;2022-10-23T15:59:57;4.63;;;2.13;;
616;SDS011;295;51.628;7.520;2022-10-23T16:02:46;3.40;;;2.40;;
616;SDS011;295;51.628;7.520;2022-10-23T16:05:35;3.20;;;2.67;;
616;SDS011;295;51.628;7.520;2022-10-23T16:08:25;6.30;;;3.97;;
616;SDS011;295;51.628;7.520;2022-10-23T16:11:15;2.23;;;1.73;;
616;SDS011;295;51.628;7.520;2022-10-23T16:14:04;4.63;;;2.90;;
616;SDS011;295;51.628;7.520;2022-10-23T16:16:53;6.87;;;1.90;;
616;SDS011;295;51.628;7.520;2022-10-23T16:19:42;2.57;;;1.83;;
616;SDS011;295;51.628;7.520;2022-10-23T16:22:31;2.50;;;1.77;;
616;SDS011;295;51.628;7.520;2022-10-23T16:25:21;7.50;;;2.33;;
616;SDS011;295;51.628;7.520;2022-10-23T16:28:10;3.10;;;2.13;;
616;SDS011;295;51.628;7.520;2022-10-23T16:30:59;4.20;;;2.33;;
616;SDS011;295;51.628;7.520;2022-10-23T16:33:48;7.00;;;4.37;;
616;SDS011;295;51.628;7.520;2022-10-23T16:36:38;5.90;;;2.40;;
616;SDS011;295;51.628;7.520;2022-10-23T16:39:28;4.37;;;2.67;;
616;SDS011;295;51.628;7.520;2022-10-23T16:42:18;2.20;;;1.57;;
616;SDS011;295;51.628;7.520;2022-10-23T16:45:08;5.03;;;2.13;;
616;SDS011;295;51.628;7.520;2022-10-23T16:47:57;4.17;;;2.80;;
616;SDS011;295;51.628;7.520;2022-10-23T16:50:45;3.73;;;2.50;;
616;SDS011;295;51.628;7.520;2022-10-23T16:53:34;6.80;;;2.40;;
616;SDS011;295;51.628;7.520;2022-10-23T16:56:24;4.53;;;2.70;;
616;SDS011;295;51.628;7.520;2022-10-23T16:59:15;5.40;;;3.50;;
616;SDS011;295;51.628;7.520;2022-10-23T17:02:04;5.30;;;3.30;;
616;SDS011;295;51.628;7.520;2022-10-23T17:04:54;5.00;;;3.30;;
616;SDS011;295;51.628;7.520;2022-10-23T17:07:43;5.40;;;3.10;;
616;SDS011;295;51.628;7.520;2022-10-23T17:10:32;5.70;;;3.67;;
616;SDS011;295;51.628;7.520;2022-10-23T17:13:21;7.20;;;3.03;;
616;SDS011;295;51.628;7.520;2022-10-23T17:16:12;3.57;;;2.77;;
616;SDS011;295;51.628;7.520;2022-10-23T17:19:02;3.73;;;2.37;;
616;SDS011;295;51.628;7.520;2022-10-23T17:22:02;3.50;;;2.27;;
616;SDS011;295;51.628;7.520;2022-10-23T17:24:56;37.17;;;19.40;;
616;SDS011;295;51.628;7.520;2022-10-23T17:27:45;4.33;;;3.17;;
616;SDS011;295;51.628;7.520;2022-10-23T17:30:36;4.60;;;1.93;;
616;SDS011;295;51.628;7.520;2022-10-23T17:33:26;3.93;;;2.20;;
616;SDS011;295;51.628;7.520;2022-10-23T17:36:15;7.43;;;2.80;;
616;SDS011;295;51.628;7.520;2022-10-23T17:39:05;4.90;;;2.90;;
616;SDS011;295;51.628;7.520;2022-10-23T17:41:54;5.87;;;4.10;;
616;SDS011;295;51.628;7.520;2022-10-23T17:44:43;4.50;;;3.10;;
616;SDS011;295;51.628;7.520;2022-10-23T17:47:32;7.63;;;3.63;;
616;SDS011;295;51.628;7.520;2022-10-23T17:50:23;8.20;;;2.80;;
616;SDS011;295;51.628;7.520;2022-10-23T17:53:12;6.23;;;4.40;;
616;SDS011;295;51.628;7.520;2022-10-23T17:56:01;3.80;;;2.47;;
616;SDS011;295;51.628;7.520;2022-10-23T17:58:51;5.13;;;3.20;;
616;SDS011;295;51.628;7.520;2022-10-23T18:01:40;5.80;;;2.80;;
616;SDS011;295;51.628;7.520;2022-10-23T18:04:32;4.00;;;2.47;;
616;SDS011;295;51.628;7.520;2022-10-23T18:07:22;4.63;;;3.40;;
616;SDS011;295;51.628;7.520;2022-10-23T18:10:12;4.20;;;2.97;;
616;SDS011;295;51.628;7.520;2022-10-23T18:13:01;2.83;;;2.13;;
616;SDS011;295;51.628;7.520;2022-10-23T18:15:50;4.57;;;3.50;;
616;SDS011;295;51.628;7.520;2022-10-23T18:18:39;6.80;;;2.90;;